Time;durP1;ratioP1;P1;durP2;ratioP2;P2;SDS_P1;SDS_P2;PMS_P1;PMS_P2;Temp;Humidity;BMP_temperature;BMP_pressure;BME280_temperature;BME280_humidity;BME280_pressure;Samples;Min_cycle;Max_cycle;Signal;HPM_P1;HPM_P2
2023/03/02 00:02:40;;;;;;;8.80;3.93;;;;;;;;;;10212947;28;20225;-74
2023/03/02 00:07:41;;;;;;;5.93;3.67;;;;;;;;;;10220851;28;20214;-73
2023/03/02 00:12:42;;;;;;;3.93;3.13;;;;;;;;;;10206550;28;20221;-75
2023/03/02 00:17:43;;;;;;;5.13;3.37;;;;;;;;;;10216039;28;20303;-75
2023/03/02 00:22:45;;;;;;;5.63;3.50;;;;;;;;;;10204549;28;20285;-74
2023/03/02 00:27:46;;;;;;;4.20;3.33;;;;;;;;;;10212245;28;20806;-75
2023/03/02 00:32:48;;;;;;;5.27;3.10;;;;;;;;;;10215182;28;20293;-71
2023/03/02 00:37:49;;;;;;;4.90;3.83;;;;;;;;;;10205379;28;20246;-73
2023/03/02 00:42:50;;;;;;;5.97;3.27;;;;;;;;;;10219385;28;20313;-74
2023/03/02 00:47:51;;;;;;;3.63;2.90;;;;;;;;;;10212463;28;20221;-74
2023/03/02 00:52:52;;;;;;;8.37;3.20;;;;;;;;;;10214860;28;20886;-72
2023/03/02 00:57:54;;;;;;;3.97;3.23;;;;;;;;;;10215385;28;20389;-74
2023/03/02 01:02:59;;;;;;;6.87;3.63;;;;;;;;;;10223032;28;20218;-74
2023/03/02 01:08:00;;;;;;;12.17;3.50;;;;;;;;;;10212971;28;20247;-72
2023/03/02 01:13:01;;;;;;;4.00;3.43;;;;;;;;;;10215851;28;20230;-75
2023/03/02 01:18:03;;;;;;;3.33;3.03;;;;;;;;;;10202669;28;20206;-74
2023/03/02 01:23:04;;;;;;;6.50;3.07;;;;;;;;;;10214689;28;20218;-76
2023/03/02 01:28:05;;;;;;;7.97;3.90;;;;;;;;;;10212098;28;20215;-71
2023/03/02 01:33:06;;;;;;;3.10;2.87;;;;;;;;;;10208303;28;20866;-73
2023/03/02 01:38:08;;;;;;;3.83;2.27;;;;;;;;;;10182085;28;20214;-77
2023/03/02 01:43:10;;;;;;;4.47;2.87;;;;;;;;;;10209885;28;20221;-75
2023/03/02 01:48:13;;;;;;;7.10;3.33;;;;;;;;;;10210360;28;20326;-74
2023/03/02 01:53:15;;;;;;;4.67;3.03;;;;;;;;;;10213529;28;20308;-74
2023/03/02 01:58:17;;;;;;;2.80;2.60;;;;;;;;;;10206832;28;20222;-73
2023/03/02 02:03:21;;;;;;;3.93;2.97;;;;;;;;;;10210906;28;20305;-73
2023/03/02 02:08:23;;;;;;;4.00;2.80;;;;;;;;;;10201028;28;20223;-73
2023/03/02 02:13:24;;;;;;;6.00;3.33;;;;;;;;;;10210885;28;20229;-74
2023/03/02 02:18:25;;;;;;;6.13;2.73;;;;;;;;;;10221754;28;20779;-74
2023/03/02 02:23:32;;;;;;;3.63;1.97;;;;;;;;;;10209115;28;20217;-73
2023/03/02 02:28:36;;;;;;;3.37;1.97;;;;;;;;;;10214557;28;20831;-75
2023/03/02 02:33:38;;;;;;;6.87;1.97;;;;;;;;;;10189594;28;20796;-74
2023/03/02 02:38:40;;;;;;;3.17;2.27;;;;;;;;;;10196598;28;20228;-73
2023/03/02 02:43:41;;;;;;;8.00;2.37;;;;;;;;;;10214086;28;20233;-76
2023/03/02 02:48:43;;;;;;;2.30;2.03;;;;;;;;;;10211535;28;20218;-74
2023/03/02 02:53:47;;;;;;;4.87;2.43;;;;;;;;;;10210982;28;20222;-73
2023/03/02 02:58:53;;;;;;;2.83;2.53;;;;;;;;;;10192067;28;20225;-74
2023/03/02 03:03:56;;;;;;;3.53;2.93;;;;;;;;;;10207088;28;20756;-73
2023/03/02 03:08:59;;;;;;;6.97;2.70;;;;;;;;;;10197807;28;20215;-73
2023/03/02 03:14:16;;;;;;;3.20;2.83;;;;;;;;;;10223347;28;20288;-74
2023/03/02 03:19:26;;;;;;;5.97;3.40;;;;;;;;;;10194558;28;20638;-71
2023/03/02 03:24:29;;;;;;;3.63;2.87;;;;;;;;;;10225293;28;20218;-77
2023/03/02 03:29:33;;;;;;;8.53;4.03;;;;;;;;;;10212638;28;20291;-74
2023/03/02 03:34:39;;;;;;;4.43;3.37;;;;;;;;;;10216917;28;20234;-74
2023/03/02 03:39:45;;;;;;;6.63;3.70;;;;;;;;;;10201225;28;20214;-73
2023/03/02 03:44:46;;;;;;;5.77;3.33;;;;;;;;;;10180783;28;20218;-74
2023/03/02 03:49:48;;;;;;;8.00;4.37;;;;;;;;;;10203348;28;20306;-76
2023/03/02 03:54:49;;;;;;;6.83;3.83;;;;;;;;;;10219230;28;20230;-72
2023/03/02 03:59:51;;;;;;;7.07;4.43;;;;;;;;;;10212970;28;20218;-74
2023/03/02 04:04:52;;;;;;;11.10;4.30;;;;;;;;;;10213971;28;20215;-74
2023/03/02 04:10:02;;;;;;;7.93;4.47;;;;;;;;;;10201073;28;20310;-76
2023/03/02 04:15:06;;;;;;;10.17;4.80;;;;;;;;;;10204730;28;20226;-76
2023/03/02 04:20:08;;;;;;;11.47;4.90;;;;;;;;;;10228918;28;20202;-74
2023/03/02 04:25:12;;;;;;;13.50;5.67;;;;;;;;;;10211622;28;20182;-75
2023/03/02 04:30:15;;;;;;;10.90;5.30;;;;;;;;;;10196982;28;20187;-78
2023/03/02 04:35:16;;;;;;;12.30;5.07;;;;;;;;;;10213054;28;20591;-74
2023/03/02 04:40:18;;;;;;;10.73;5.30;;;;;;;;;;10214829;28;20623;-74
2023/03/02 04:45:19;;;;;;;12.47;4.83;;;;;;;;;;10207727;28;20182;-77
2023/03/02 04:50:20;;;;;;;10.50;6.27;;;;;;;;;;10211233;28;20210;-73
2023/03/02 04:55:22;;;;;;;16.00;6.27;;;;;;;;;;10215025;28;20206;-76
2023/03/02 05:00:24;;;;;;;16.80;6.53;;;;;;;;;;10202226;28;20333;-75
2023/03/02 05:05:25;;;;;;;20.70;7.60;;;;;;;;;;10207067;28;20223;-75
2023/03/02 05:10:27;;;;;;;26.70;6.53;;;;;;;;;;10215167;28;20301;-74
2023/03/02 05:15:29;;;;;;;26.80;7.40;;;;;;;;;;10210924;28;21499;-71
2023/03/02 05:20:31;;;;;;;12.43;5.40;;;;;;;;;;10215915;28;20802;-75
2023/03/02 05:25:33;;;;;;;16.50;6.03;;;;;;;;;;10215085;28;20284;-75
2023/03/02 05:30:36;;;;;;;11.73;5.40;;;;;;;;;;10193896;28;20227;-76
2023/03/02 05:35:37;;;;;;;11.93;5.57;;;;;;;;;;10212141;28;20645;-74
2023/03/02 05:40:39;;;;;;;12.63;4.97;;;;;;;;;;10211489;28;20398;-72
2023/03/02 05:45:40;;;;;;;14.93;5.47;;;;;;;;;;10197611;28;20594;-74
2023/03/02 05:50:41;;;;;;;11.60;6.23;;;;;;;;;;10195344;28;20225;-74
2023/03/02 05:55:42;;;;;;;11.10;5.13;;;;;;;;;;10199479;28;20217;-74
2023/03/02 06:00:44;;;;;;;8.50;4.93;;;;;;;;;;10184290;28;20248;-76
2023/03/02 06:05:49;;;;;;;10.20;5.43;;;;;;;;;;10186432;28;20218;-73
2023/03/02 06:10:54;;;;;;;7.03;5.13;;;;;;;;;;10220132;28;20222;-74
2023/03/02 06:15:55;;;;;;;12.33;5.10;;;;;;;;;;10199303;28;20222;-74
2023/03/02 06:20:56;;;;;;;13.73;6.03;;;;;;;;;;10203928;28;20240;-74
2023/03/02 06:25:58;;;;;;;22.53;5.60;;;;;;;;;;10209287;28;20218;-72
2023/03/02 06:30:59;;;;;;;20.47;5.97;;;;;;;;;;10195903;28;20273;-70
2023/03/02 06:36:00;;;;;;;29.13;7.37;;;;;;;;;;10201982;28;20217;-75
2023/03/02 06:41:02;;;;;;;14.90;6.37;;;;;;;;;;10198884;28;20226;-72
2023/03/02 06:46:03;;;;;;;24.57;6.33;;;;;;;;;;10209306;28;20716;-73
2023/03/02 06:51:04;;;;;;;11.40;6.00;;;;;;;;;;10203467;28;20301;-73
2023/03/02 06:56:06;;;;;;;15.33;6.33;;;;;;;;;;10201231;28;20226;-72
2023/03/02 07:01:07;;;;;;;21.43;7.20;;;;;;;;;;10204074;28;20226;-74
2023/03/02 07:06:09;;;;;;;12.63;7.10;;;;;;;;;;10203089;28;20298;-77
2023/03/02 07:11:11;;;;;;;24.27;6.77;;;;;;;;;;10205671;28;20310;-78
2023/03/02 07:16:13;;;;;;;16.67;7.60;;;;;;;;;;10194158;28;20771;-74
2023/03/02 07:21:14;;;;;;;13.77;6.17;;;;;;;;;;10217984;28;20305;-74
2023/03/02 07:26:15;;;;;;;13.57;7.13;;;;;;;;;;10196785;28;20336;-73
2023/03/02 07:31:16;;;;;;;16.63;7.87;;;;;;;;;;10212583;28;20237;-74
2023/03/02 07:36:18;;;;;;;18.30;8.47;;;;;;;;;;10214301;28;20301;-73
2023/03/02 07:41:19;;;;;;;21.37;7.53;;;;;;;;;;10211011;28;20873;-75
2023/03/02 07:46:20;;;;;;;24.70;8.48;;;;;;;;;;10210333;28;20294;-73
2023/03/02 07:51:21;;;;;;;15.10;7.60;;;;;;;;;;10206180;28;20221;-73
2023/03/02 07:56:22;;;;;;;17.30;8.17;;;;;;;;;;10194846;28;20229;-73
2023/03/02 08:01:23;;;;;;;23.33;7.47;;;;;;;;;;10207753;28;20218;-74
2023/03/02 08:06:24;;;;;;;22.17;9.23;;;;;;;;;;10211736;28;20303;-72
2023/03/02 08:11:26;;;;;;;16.03;6.97;;;;;;;;;;10213113;28;20296;-71
2023/03/02 08:16:27;;;;;;;17.43;8.80;;;;;;;;;;10208942;28;20368;-76
2023/03/02 08:21:28;;;;;;;25.45;9.27;;;;;;;;;;10205315;28;20698;-74
2023/03/02 08:26:30;;;;;;;21.48;10.07;;;;;;;;;;10210869;28;20272;-75
2023/03/02 08:31:33;;;;;;;21.88;8.25;;;;;;;;;;10206768;28;20316;-74
2023/03/02 08:36:35;;;;;;;25.42;7.63;;;;;;;;;;10209813;28;20233;-73
2023/03/02 08:41:38;;;;;;;18.38;8.27;;;;;;;;;;10200939;28;20249;-76
2023/03/02 08:46:40;;;;;;;19.38;8.45;;;;;;;;;;10208977;28;20654;-75
2023/03/02 08:51:44;;;;;;;20.08;7.57;;;;;;;;;;10208068;28;20760;-76
2023/03/02 08:56:47;;;;;;;17.92;7.53;;;;;;;;;;10206160;28;20341;-77
2023/03/02 09:01:50;;;;;;;29.33;9.45;;;;;;;;;;10216855;28;20241;-73
2023/03/02 09:06:52;;;;;;;20.35;9.13;;;;;;;;;;10196692;28;20222;-75
2023/03/02 09:11:55;;;;;;;22.52;9.13;;;;;;;;;;10206061;28;20311;-76
2023/03/02 09:16:58;;;;;;;18.85;9.02;;;;;;;;;;10203380;28;20730;-77
2023/03/02 09:22:00;;;;;;;14.65;8.32;;;;;;;;;;10191889;28;20898;-76
2023/03/02 09:27:03;;;;;;;18.10;8.57;;;;;;;;;;10204589;28;20227;-76
2023/03/02 09:32:06;;;;;;;22.95;9.60;;;;;;;;;;10203531;28;20233;-74
2023/03/02 09:37:08;;;;;;;26.50;10.05;;;;;;;;;;10202168;28;20218;-75
2023/03/02 09:42:15;;;;;;;14.07;7.72;;;;;;;;;;10183832;28;20233;-76
2023/03/02 09:47:21;;;;;;;22.45;9.48;;;;;;;;;;10204578;28;20935;-76
2023/03/02 09:52:31;;;;;;;16.98;8.45;;;;;;;;;;10194021;28;20328;-76
2023/03/02 09:57:34;;;;;;;18.10;9.52;;;;;;;;;;10191037;28;20875;-76
2023/03/02 10:02:37;;;;;;;16.27;8.73;;;;;;;;;;10177616;28;1018217;-77
2023/03/02 10:07:38;;;;;;;23.75;9.38;;;;;;;;;;10203943;28;20392;-77
2023/03/02 10:12:39;;;;;;;24.25;10.57;;;;;;;;;;10174004;28;20218;-77
2023/03/02 10:17:59;;;;;;;27.05;12.57;;;;;;;;;;10204861;28;20218;-78
2023/03/02 10:23:09;;;;;;;23.60;11.32;;;;;;;;;;10202835;28;20300;-75
2023/03/02 10:28:16;;;;;;;23.27;10.73;;;;;;;;;;10199862;28;20228;-76
2023/03/02 10:33:19;;;;;;;23.67;10.50;;;;;;;;;;10207449;28;20238;-75
2023/03/02 10:38:23;;;;;;;30.42;12.02;;;;;;;;;;10209127;28;20720;-74
2023/03/02 10:43:40;;;;;;;23.75;10.95;;;;;;;;;;10202709;28;20218;-77
2023/03/02 10:48:50;;;;;;;21.90;10.88;;;;;;;;;;10197275;28;20700;-75
2023/03/02 10:54:05;;;;;;;20.98;9.88;;;;;;;;;;10205688;28;20228;-77
2023/03/02 10:59:25;;;;;;;24.25;10.90;;;;;;;;;;10199567;28;20663;-78
2023/03/02 11:04:26;;;;;;;18.88;10.15;;;;;;;;;;10203989;28;20281;-77
2023/03/02 11:09:28;;;;;;;22.58;9.93;;;;;;;;;;10192648;28;20228;-75
2023/03/02 11:14:29;;;;;;;19.10;9.15;;;;;;;;;;10212105;28;20705;-77
2023/03/02 11:19:35;;;;;;;27.42;10.98;;;;;;;;;;10214841;28;20228;-79
2023/03/02 11:24:48;;;;;;;20.13;9.98;;;;;;;;;;10179375;28;20265;-76
2023/03/02 11:29:52;;;;;;;24.55;11.40;;;;;;;;;;10204434;28;20257;-79
2023/03/02 11:35:10;;;;;;;25.30;10.52;;;;;;;;;;10198559;28;20232;-78
2023/03/02 11:40:30;;;;;;;25.77;10.95;;;;;;;;;;10210958;28;20258;-77
2023/03/02 11:45:36;;;;;;;25.02;12.25;;;;;;;;;;10173147;28;20219;-77
2023/03/02 11:50:45;;;;;;;34.17;12.40;;;;;;;;;;10202469;28;20211;-80
2023/03/02 11:55:48;;;;;;;24.73;11.55;;;;;;;;;;10206669;28;21199;-76
2023/03/02 12:00:50;;;;;;;21.52;11.25;;;;;;;;;;10209329;28;20896;-75
2023/03/02 12:05:51;;;;;;;26.92;12.40;;;;;;;;;;10203794;28;20296;-77
2023/03/02 12:10:57;;;;;;;22.92;11.15;;;;;;;;;;10180986;28;20235;-76
2023/03/02 12:15:59;;;;;;;26.45;11.75;;;;;;;;;;10208639;28;20235;-78
2023/03/02 12:21:01;;;;;;;26.13;13.15;;;;;;;;;;10205168;28;20309;-77
2023/03/02 12:26:24;;;;;;;34.75;15.20;;;;;;;;;;10208145;28;20309;-78
2023/03/02 12:31:25;;;;;;;35.15;14.55;;;;;;;;;;10204004;28;20598;-79
2023/03/02 12:36:31;;;;;;;29.73;14.57;;;;;;;;;;10213783;28;20708;-78
2023/03/02 12:41:47;;;;;;;32.53;14.68;;;;;;;;;;10203603;28;20222;-80
2023/03/02 12:46:49;;;;;;;28.23;13.98;;;;;;;;;;10209389;28;20583;-74
2023/03/02 12:51:51;;;;;;;29.98;15.20;;;;;;;;;;10213919;28;20766;-76
2023/03/02 12:57:05;;;;;;;30.08;15.05;;;;;;;;;;10211329;28;20221;-76
2023/03/02 13:02:14;;;;;;;31.17;14.88;;;;;;;;;;10212292;28;20234;-78
2023/03/02 13:07:19;;;;;;;27.15;13.13;;;;;;;;;;10201702;28;20218;-79
2023/03/02 13:12:21;;;;;;;28.90;14.57;;;;;;;;;;10216038;28;20226;-76
2023/03/02 13:17:30;;;;;;;26.85;13.50;;;;;;;;;;10199232;28;20247;-77
2023/03/02 13:22:32;;;;;;;27.80;14.23;;;;;;;;;;10205502;28;20253;-78
2023/03/02 13:27:34;;;;;;;26.15;14.32;;;;;;;;;;10197139;28;20210;-77
2023/03/02 13:32:38;;;;;;;32.30;13.98;;;;;;;;;;10212386;28;20228;-77
2023/03/02 13:37:42;;;;;;;32.05;14.43;;;;;;;;;;10216134;28;20301;-77
2023/03/02 13:42:44;;;;;;;30.45;15.35;;;;;;;;;;10205576;28;20242;-75
2023/03/02 13:47:45;;;;;;;29.83;13.30;;;;;;;;;;10209702;28;20224;-77
2023/03/02 13:52:46;;;;;;;26.60;13.38;;;;;;;;;;10210843;28;20260;-77
2023/03/02 13:57:48;;;;;;;32.75;13.65;;;;;;;;;;10206329;28;20755;-77
2023/03/02 14:02:50;;;;;;;29.48;14.20;;;;;;;;;;10205313;28;20222;-79
2023/03/02 14:07:52;;;;;;;26.33;12.68;;;;;;;;;;10181270;28;20226;-77
2023/03/02 14:12:57;;;;;;;26.77;12.32;;;;;;;;;;10190523;28;20219;-75
2023/03/02 14:17:58;;;;;;;24.63;12.23;;;;;;;;;;10205088;28;20908;-75
2023/03/02 14:23:02;;;;;;;24.33;13.13;;;;;;;;;;10205113;28;20222;-74
2023/03/02 14:28:03;;;;;;;24.17;11.60;;;;;;;;;;10200261;28;20310;-79
2023/03/02 14:33:05;;;;;;;21.98;11.48;;;;;;;;;;10202446;28;20325;-78
2023/03/02 14:38:09;;;;;;;22.55;11.73;;;;;;;;;;10185712;28;20225;-75
2023/03/02 14:43:10;;;;;;;19.40;10.05;;;;;;;;;;10203160;28;20206;-78
2023/03/02 14:48:11;;;;;;;17.20;10.05;;;;;;;;;;10201816;28;20902;-75
2023/03/02 14:53:15;;;;;;;16.13;9.00;;;;;;;;;;10205915;28;20213;-78
2023/03/02 14:58:18;;;;;;;15.90;8.57;;;;;;;;;;10211575;28;20272;-78
2023/03/02 15:03:24;;;;;;;18.10;8.95;;;;;;;;;;10208172;28;20613;-76
2023/03/02 15:08:25;;;;;;;24.35;10.25;;;;;;;;;;10189204;28;20612;-75
2023/03/02 15:13:26;;;;;;;14.98;8.93;;;;;;;;;;10210915;28;20236;-74
2023/03/02 15:18:27;;;;;;;18.45;9.52;;;;;;;;;;10213529;28;20314;-77
2023/03/02 15:23:28;;;;;;;16.80;9.48;;;;;;;;;;10202380;28;20217;-75
2023/03/02 15:28:29;;;;;;;16.92;8.15;;;;;;;;;;10210129;28;20314;-75
2023/03/02 15:33:30;;;;;;;16.40;8.07;;;;;;;;;;10211063;28;20231;-76
2023/03/02 15:38:32;;;;;;;15.93;7.65;;;;;;;;;;10210810;28;20990;-76
2023/03/02 15:43:33;;;;;;;14.88;8.13;;;;;;;;;;10193229;28;20292;-77
2023/03/02 15:48:35;;;;;;;10.43;6.70;;;;;;;;;;10217756;28;20765;-76
2023/03/02 15:53:37;;;;;;;14.88;7.32;;;;;;;;;;10210287;28;20232;-77
2023/03/02 15:58:38;;;;;;;14.80;7.72;;;;;;;;;;10205865;28;20901;-77
2023/03/02 16:03:39;;;;;;;13.35;6.93;;;;;;;;;;10193493;28;20202;-77
2023/03/02 16:08:41;;;;;;;12.23;6.70;;;;;;;;;;10197039;28;20822;-76
2023/03/02 16:13:42;;;;;;;14.45;7.15;;;;;;;;;;10207164;28;20218;-78
2023/03/02 16:18:43;;;;;;;16.42;7.47;;;;;;;;;;10198019;28;20213;-77
2023/03/02 16:23:44;;;;;;;13.80;6.75;;;;;;;;;;10200988;28;20215;-75
2023/03/02 16:28:45;;;;;;;10.25;6.38;;;;;;;;;;10203524;28;20227;-80
2023/03/02 16:33:47;;;;;;;14.93;7.35;;;;;;;;;;10208557;28;20233;-78
2023/03/02 16:38:48;;;;;;;14.18;6.35;;;;;;;;;;10207202;28;20915;-78
2023/03/02 16:43:51;;;;;;;14.15;7.15;;;;;;;;;;10204890;28;20724;-76
2023/03/02 16:48:52;;;;;;;13.00;6.25;;;;;;;;;;10204181;28;20217;-76
2023/03/02 16:53:53;;;;;;;10.32;6.10;;;;;;;;;;10202884;28;20210;-79
2023/03/02 16:58:55;;;;;;;9.55;6.40;;;;;;;;;;10189361;28;20218;-78
2023/03/02 17:03:56;;;;;;;9.38;5.80;;;;;;;;;;10199629;28;20218;-79
2023/03/02 17:08:57;;;;;;;10.10;5.63;;;;;;;;;;10204300;28;20317;-78
2023/03/02 17:13:58;;;;;;;15.45;7.10;;;;;;;;;;10209777;28;20325;-77
2023/03/02 17:18:59;;;;;;;15.82;7.40;;;;;;;;;;10198499;28;20215;-75
2023/03/02 17:24:01;;;;;;;11.82;6.93;;;;;;;;;;10207439;28;20221;-77
2023/03/02 17:29:02;;;;;;;14.07;7.10;;;;;;;;;;10207150;28;20771;-77
2023/03/02 17:34:03;;;;;;;16.70;7.88;;;;;;;;;;10205598;28;20981;-77
2023/03/02 17:39:05;;;;;;;12.80;7.28;;;;;;;;;;10208571;28;20229;-76
2023/03/02 17:44:06;;;;;;;14.82;6.65;;;;;;;;;;10207479;28;20674;-78
2023/03/02 17:49:07;;;;;;;11.32;6.35;;;;;;;;;;10205093;28;20215;-77
2023/03/02 17:54:08;;;;;;;10.65;6.13;;;;;;;;;;10210559;28;20221;-81
2023/03/02 17:59:10;;;;;;;13.45;6.72;;;;;;;;;;10203784;28;20222;-74
2023/03/02 18:04:11;;;;;;;15.77;7.10;;;;;;;;;;10200645;28;20234;-78
2023/03/02 18:09:12;;;;;;;14.05;5.82;;;;;;;;;;10214842;28;20762;-81
2023/03/02 18:14:14;;;;;;;8.77;5.00;;;;;;;;;;10209231;28;20214;-80
2023/03/02 18:19:16;;;;;;;14.77;7.32;;;;;;;;;;10209440;28;20214;-80
2023/03/02 18:24:17;;;;;;;13.18;5.93;;;;;;;;;;10195625;28;20260;-75
2023/03/02 18:29:18;;;;;;;12.75;5.63;;;;;;;;;;10201865;28;20317;-79
2023/03/02 18:34:20;;;;;;;12.95;6.50;;;;;;;;;;10203189;28;20313;-78
2023/03/02 18:39:21;;;;;;;10.70;6.25;;;;;;;;;;10189077;28;21271;-81
2023/03/02 18:44:26;;;;;;;13.77;6.35;;;;;;;;;;10201998;28;20213;-80
2023/03/02 18:49:28;;;;;;;10.20;5.72;;;;;;;;;;10185365;28;20311;-77
2023/03/02 18:54:29;;;;;;;11.23;5.60;;;;;;;;;;10198525;28;20299;-80
2023/03/02 18:59:30;;;;;;;10.40;5.50;;;;;;;;;;10203134;28;20281;-79
2023/03/02 19:04:31;;;;;;;8.15;5.07;;;;;;;;;;10206423;28;20217;-77
2023/03/02 19:09:33;;;;;;;6.45;5.10;;;;;;;;;;10210934;28;20246;-80
2023/03/02 19:14:34;;;;;;;12.93;5.90;;;;;;;;;;10192706;28;20656;-79
2023/03/02 19:19:35;;;;;;;12.35;6.38;;;;;;;;;;10209538;28;20276;-78
2023/03/02 19:24:37;;;;;;;12.57;6.18;;;;;;;;;;10195341;28;20309;-80
2023/03/02 19:29:38;;;;;;;12.88;6.35;;;;;;;;;;10189279;28;20225;-79
2023/03/02 19:34:41;;;;;;;15.55;8.45;;;;;;;;;;10205831;28;21866;-78
2023/03/02 19:39:42;;;;;;;14.98;5.97;;;;;;;;;;10191895;28;20645;-78
2023/03/02 19:44:43;;;;;;;8.88;5.00;;;;;;;;;;10210404;28;20218;-80
2023/03/02 19:49:45;;;;;;;13.70;6.50;;;;;;;;;;10192230;28;20225;-78
2023/03/02 19:54:46;;;;;;;12.27;5.20;;;;;;;;;;10213317;28;20225;-78
2023/03/02 19:59:47;;;;;;;8.10;4.90;;;;;;;;;;10192381;28;20687;-77
2023/03/02 20:04:49;;;;;;;7.75;4.40;;;;;;;;;;10207038;28;20324;-78
2023/03/02 20:09:50;;;;;;;7.85;4.63;;;;;;;;;;10211293;28;20214;-77
2023/03/02 20:14:53;;;;;;;8.57;5.03;;;;;;;;;;10200738;28;20221;-79
2023/03/02 20:19:54;;;;;;;10.25;4.72;;;;;;;;;;10203308;28;20226;-79
2023/03/02 20:24:56;;;;;;;10.20;4.88;;;;;;;;;;10198345;28;20270;-75
2023/03/02 20:29:57;;;;;;;6.97;3.15;;;;;;;;;;10218601;28;20362;-78
2023/03/02 20:34:59;;;;;;;9.77;4.30;;;;;;;;;;10197684;28;20266;-79
2023/03/02 20:40:00;;;;;;;9.50;3.77;;;;;;;;;;10216320;28;20221;-79
2023/03/02 20:45:02;;;;;;;8.88;4.85;;;;;;;;;;10216966;28;20265;-77
2023/03/02 20:50:06;;;;;;;8.63;4.55;;;;;;;;;;10209783;28;20222;-80
2023/03/02 20:55:09;;;;;;;7.40;4.03;;;;;;;;;;10197343;28;20218;-79
2023/03/02 21:00:13;;;;;;;10.75;5.22;;;;;;;;;;10213567;28;21112;-80
2023/03/02 21:05:15;;;;;;;9.75;6.15;;;;;;;;;;10214741;28;20209;-75
2023/03/02 21:10:23;;;;;;;5.32;3.78;;;;;;;;;;10199642;28;20210;-81
2023/03/02 21:15:26;;;;;;;5.80;3.77;;;;;;;;;;10213255;28;20237;-79
2023/03/02 21:20:28;;;;;;;10.32;4.40;;;;;;;;;;10211724;28;20237;-80
2023/03/02 21:25:30;;;;;;;6.22;3.47;;;;;;;;;;10212033;28;20231;-78
2023/03/02 21:30:33;;;;;;;9.60;4.90;;;;;;;;;;10200113;28;20815;-81
2023/03/02 21:35:35;;;;;;;9.68;4.25;;;;;;;;;;10208526;28;20747;-77
2023/03/02 21:40:39;;;;;;;11.02;5.22;;;;;;;;;;10212614;28;20604;-79
2023/03/02 21:45:40;;;;;;;8.83;4.83;;;;;;;;;;10209135;28;20229;-79
2023/03/02 21:50:42;;;;;;;14.30;5.47;;;;;;;;;;10213754;28;20226;-78
2023/03/02 21:55:44;;;;;;;8.73;4.53;;;;;;;;;;10218532;28;20575;-78
2023/03/02 22:00:45;;;;;;;5.70;3.42;;;;;;;;;;10213244;28;20310;-79
2023/03/02 22:05:46;;;;;;;7.45;3.75;;;;;;;;;;10225174;28;20525;-76
2023/03/02 22:10:49;;;;;;;8.20;3.50;;;;;;;;;;10218493;28;20214;-77
2023/03/02 22:16:09;;;;;;;4.25;3.08;;;;;;;;;;10213401;28;20614;-78
2023/03/02 22:21:29;;;;;;;6.65;3.67;;;;;;;;;;10210349;28;20221;-78
2023/03/02 22:26:30;;;;;;;4.88;3.42;;;;;;;;;;10199054;28;20218;-80
2023/03/02 22:31:31;;;;;;;4.97;3.50;;;;;;;;;;10209018;28;20784;-78
2023/03/02 22:36:32;;;;;;;3.30;3.00;;;;;;;;;;10213560;28;20773;-77
2023/03/02 22:41:33;;;;;;;11.43;4.10;;;;;;;;;;10173839;28;20210;-76
2023/03/02 22:46:35;;;;;;;4.10;2.67;;;;;;;;;;10197895;28;20337;-78
2023/03/02 22:51:36;;;;;;;3.25;2.08;;;;;;;;;;10217832;28;20320;-77
2023/03/02 22:56:42;;;;;;;6.20;2.50;;;;;;;;;;10211807;28;20234;-74
2023/03/02 23:01:44;;;;;;;3.40;2.53;;;;;;;;;;10209647;28;20220;-78
2023/03/02 23:06:46;;;;;;;3.17;2.70;;;;;;;;;;10207666;28;20221;-78
2023/03/02 23:11:48;;;;;;;7.63;2.90;;;;;;;;;;10214288;28;20222;-79
2023/03/02 23:16:57;;;;;;;3.80;2.20;;;;;;;;;;10189308;28;20214;-77
2023/03/02 23:21:59;;;;;;;4.67;2.57;;;;;;;;;;10201126;28;20635;-78
2023/03/02 23:27:00;;;;;;;5.35;3.42;;;;;;;;;;10209046;28;20211;-79
2023/03/02 23:32:01;;;;;;;6.13;3.75;;;;;;;;;;10190906;28;20877;-77
2023/03/02 23:37:02;;;;;;;10.48;4.65;;;;;;;;;;10228199;28;20714;-78
2023/03/02 23:42:03;;;;;;;6.22;4.18;;;;;;;;;;10206891;28;20277;-78
2023/03/02 23:47:05;;;;;;;8.18;4.70;;;;;;;;;;10208992;28;20206;-78
2023/03/02 23:52:06;;;;;;;12.73;4.60;;;;;;;;;;10191324;28;20938;-78
2023/03/02 23:57:07;;;;;;;12.63;4.07;;;;;;;;;;10201608;28;20317;-77
